createdAt,value
2022-11-15T00:01:30.455Z,3.45
2022-11-15T00:04:35.460Z,3.08
2022-11-15T00:07:55.324Z,3.75
2022-11-15T00:11:04.375Z,3.10
2022-11-15T00:14:09.440Z,3.08
2022-11-15T00:17:14.260Z,3.20
2022-11-15T00:20:19.602Z,3.20
2022-11-15T00:23:24.597Z,3.05
2022-11-15T00:26:29.600Z,3.47
2022-11-15T00:29:34.772Z,3.25
2022-11-15T00:32:39.772Z,3.20
2022-11-15T00:35:44.937Z,2.90
2022-11-15T00:38:50.013Z,2.97
2022-11-15T00:41:55.414Z,2.80
2022-11-15T00:45:00.598Z,2.60
2022-11-15T00:48:05.749Z,3.20
2022-11-15T00:51:10.780Z,3.13
2022-11-15T00:54:15.849Z,2.88
2022-11-15T00:57:21.073Z,3.30
2022-11-15T01:00:26.172Z,2.88
2022-11-15T01:03:34.632Z,2.53
2022-11-15T01:06:39.580Z,2.63
2022-11-15T01:09:44.938Z,2.30
2022-11-15T01:12:50.548Z,2.35
2022-11-15T01:15:55.394Z,3.00
2022-11-15T01:19:00.983Z,2.33
2022-11-15T01:22:06.009Z,3.03
2022-11-15T01:25:11.070Z,2.40
2022-11-15T01:28:16.414Z,2.50
2022-11-15T01:31:22.429Z,2.55
2022-11-15T01:34:27.231Z,2.20
2022-11-15T01:37:32.233Z,2.80
2022-11-15T01:40:37.447Z,2.13
2022-11-15T01:43:42.436Z,2.70
2022-11-15T01:46:49.548Z,2.15
2022-11-15T01:50:04.557Z,2.33
2022-11-15T01:53:11.737Z,2.47
2022-11-15T01:56:26.521Z,2.55
2022-11-15T01:59:32.054Z,2.47
2022-11-15T02:02:38.455Z,2.95
2022-11-15T02:05:45.159Z,2.40
2022-11-15T02:08:51.964Z,2.55
2022-11-15T02:11:57.995Z,2.30
2022-11-15T02:15:05.218Z,2.30
2022-11-15T02:18:36.698Z,2.50
2022-11-15T02:21:47.658Z,2.17
2022-11-15T02:25:35.595Z,2.50
2022-11-15T02:29:11.401Z,2.42
2022-11-15T02:32:30.211Z,2.03
2022-11-15T02:36:35.523Z,2.20
2022-11-15T02:40:20.147Z,2.20
2022-11-15T02:43:53.041Z,2.60
2022-11-15T02:47:17.308Z,2.50
2022-11-15T02:50:28.177Z,2.33
2022-11-15T02:53:33.173Z,2.15
2022-11-15T02:56:38.537Z,2.50
2022-11-15T03:00:06.852Z,2.40
2022-11-15T03:03:18.211Z,2.33
2022-11-15T03:06:35.022Z,2.35
2022-11-15T03:10:09.845Z,2.50
2022-11-15T03:13:45.148Z,2.20
2022-11-15T03:17:31.282Z,2.60
2022-11-15T03:20:37.513Z,2.28
2022-11-15T03:23:44.666Z,2.00
2022-11-15T03:26:50.788Z,2.08
2022-11-15T03:30:05.456Z,1.98
2022-11-15T03:33:12.569Z,2.38
2022-11-15T03:36:21.607Z,2.40
2022-11-15T03:39:27.243Z,2.47
2022-11-15T03:42:49.864Z,2.42
2022-11-15T03:46:16.046Z,2.20
2022-11-15T03:49:31.258Z,2.00
2022-11-15T03:52:36.855Z,1.92
2022-11-15T03:55:42.126Z,2.42
2022-11-15T03:58:46.856Z,2.22
2022-11-15T04:01:51.986Z,2.42
2022-11-15T04:04:56.967Z,2.40
2022-11-15T04:08:01.886Z,2.45
2022-11-15T04:11:07.048Z,2.33
2022-11-15T04:14:12.423Z,1.95
2022-11-15T04:17:17.243Z,1.95
2022-11-15T04:20:43.209Z,2.40
2022-11-15T04:24:08.473Z,2.40
2022-11-15T04:27:17.286Z,2.45
2022-11-15T04:30:22.241Z,2.53
2022-11-15T04:33:27.172Z,2.20
2022-11-15T04:36:50.712Z,2.85
2022-11-15T04:39:55.666Z,2.60
2022-11-15T04:43:03.867Z,2.50
2022-11-15T04:46:09.426Z,2.67
2022-11-15T04:49:14.560Z,2.10
2022-11-15T04:52:19.989Z,2.20
2022-11-15T04:55:24.649Z,2.53
2022-11-15T04:58:29.756Z,2.13
2022-11-15T05:01:34.974Z,2.33
2022-11-15T05:04:40.849Z,2.70
2022-11-15T05:07:46.065Z,2.40
2022-11-15T05:10:51.030Z,2.08
2022-11-15T05:13:56.481Z,2.63
2022-11-15T05:17:01.625Z,2.55
2022-11-15T05:20:07.281Z,2.97
2022-11-15T05:23:12.538Z,3.40
2022-11-15T05:26:19.590Z,3.42
2022-11-15T05:29:25.057Z,2.88
2022-11-15T05:32:30.202Z,2.83
2022-11-15T05:35:47.449Z,2.60
2022-11-15T05:38:52.239Z,2.88
2022-11-15T05:42:07.016Z,2.50
2022-11-15T05:45:12.449Z,2.92
2022-11-15T05:48:17.529Z,3.15
2022-11-15T05:51:23.743Z,2.33
2022-11-15T05:54:28.559Z,3.00
2022-11-15T05:57:33.273Z,2.53
2022-11-15T06:00:38.472Z,2.50
2022-11-15T06:03:43.528Z,2.92
2022-11-15T06:06:48.753Z,2.75
2022-11-15T06:09:53.391Z,2.85
2022-11-15T06:13:04.005Z,2.92
2022-11-15T06:16:09.029Z,2.55
2022-11-15T06:19:14.172Z,2.42
2022-11-15T06:22:19.169Z,2.92
2022-11-15T06:25:24.446Z,2.50
2022-11-15T06:28:31.369Z,2.83
2022-11-15T06:31:36.594Z,2.78
2022-11-15T06:34:41.551Z,2.83
2022-11-15T06:37:46.756Z,3.00
2022-11-15T06:40:51.729Z,3.00
2022-11-15T06:43:58.609Z,3.22
2022-11-15T06:47:03.656Z,3.05
2022-11-15T06:50:09.317Z,3.83
2022-11-15T06:53:14.404Z,3.00
